createdAt,value
2023-01-30T00:01:09.110Z,100758.00
2023-01-30T00:03:38.653Z,100743.13
2023-01-30T00:06:08.486Z,100734.41
2023-01-30T00:08:38.049Z,100722.19
2023-01-30T00:11:08.483Z,100721.31
2023-01-30T00:13:38.573Z,100719.56
2023-01-30T00:16:12.272Z,100726.53
2023-01-30T00:18:45.253Z,100743.09
2023-01-30T00:21:16.245Z,100747.44
2023-01-30T00:23:46.226Z,100745.66
2023-01-30T00:26:16.406Z,100733.47
2023-01-30T00:28:45.985Z,100724.75
2023-01-30T00:31:18.195Z,100725.56
2023-01-30T00:33:47.795Z,100728.19
2023-01-30T00:36:17.653Z,100716.84
2023-01-30T00:38:47.280Z,100708.97
2023-01-30T00:41:18.839Z,100702.88
2023-01-30T00:44:00.863Z,100701.97
2023-01-30T00:46:49.740Z,100693.25
2023-01-30T00:49:19.374Z,100695.84
2023-01-30T00:51:49.269Z,100694.03
2023-01-30T00:54:18.860Z,100685.28
2023-01-30T00:56:48.435Z,100677.44
2023-01-30T00:59:18.035Z,100667.81
2023-01-30T01:01:51.464Z,100659.94
2023-01-30T01:04:21.069Z,100667.78
2023-01-30T01:06:51.150Z,100663.41
2023-01-30T01:09:20.753Z,100662.53
2023-01-30T01:11:50.341Z,100656.41
2023-01-30T01:14:19.929Z,100665.94
2023-01-30T01:16:52.405Z,100672.91
2023-01-30T01:19:22.000Z,100654.56
2023-01-30T01:21:51.622Z,100659.78
2023-01-30T01:24:21.261Z,100652.81
2023-01-30T01:26:50.898Z,100651.03
2023-01-30T01:29:20.486Z,100644.94
2023-01-30T01:31:52.730Z,100626.66
2023-01-30T01:34:22.353Z,100624.06
2023-01-30T01:36:54.164Z,100636.31
2023-01-30T01:39:24.515Z,100638.06
2023-01-30T01:41:51.571Z,100637.22
2023-01-30T01:44:21.198Z,100631.09
2023-01-30T01:46:55.411Z,100627.59
2023-01-30T01:49:26.011Z,100626.72
2023-01-30T01:52:00.146Z,100633.72
2023-01-30T01:54:41.375Z,100631.06
2023-01-30T01:57:15.941Z,100622.31
2023-01-30T01:59:48.851Z,100617.03
2023-01-30T02:02:22.727Z,100619.63
2023-01-30T02:05:06.899Z,100611.75
2023-01-30T02:07:39.968Z,100590.75
2023-01-30T02:10:12.868Z,100584.59
2023-01-30T02:12:43.724Z,100590.66
2023-01-30T02:15:14.112Z,100587.16
2023-01-30T02:17:46.399Z,100580.19
2023-01-30T02:20:25.964Z,100576.69
2023-01-30T02:23:34.669Z,100572.31
2023-01-30T02:26:26.682Z,100567.13
2023-01-30T02:29:17.057Z,100570.66
2023-01-30T02:31:52.450Z,100554.09
2023-01-30T02:34:38.422Z,100551.50
2023-01-30T02:37:20.827Z,100550.59
2023-01-30T02:39:59.050Z,100532.28
2023-01-30T02:42:35.081Z,100535.81
2023-01-30T02:45:12.275Z,100528.81
2023-01-30T02:47:48.031Z,100526.19
2023-01-30T02:50:21.881Z,100518.31
2023-01-30T02:52:51.681Z,100527.03
2023-01-30T02:55:23.358Z,100503.44
2023-01-30T02:57:53.696Z,100517.38
2023-01-30T03:00:26.969Z,100514.72
2023-01-30T03:03:11.152Z,100509.44
2023-01-30T03:06:06.397Z,100506.75
2023-01-30T03:08:41.070Z,100515.47
2023-01-30T03:11:13.033Z,100507.56
2023-01-30T03:13:51.576Z,100496.16
2023-01-30T03:16:23.228Z,100491.75
2023-01-30T03:18:55.533Z,100495.22
2023-01-30T03:21:25.215Z,100496.00
2023-01-30T03:23:55.589Z,100494.19
2023-01-30T03:26:28.035Z,100488.97
2023-01-30T03:28:57.840Z,100479.31
2023-01-30T03:31:27.577Z,100495.00
2023-01-30T03:34:00.194Z,100482.75
2023-01-30T03:36:30.257Z,100473.13
2023-01-30T03:39:00.256Z,100473.97
2023-01-30T03:41:29.948Z,100463.47
2023-01-30T03:43:59.552Z,100463.44
2023-01-30T03:46:29.272Z,100462.53
2023-01-30T03:49:01.502Z,100465.97
2023-01-30T03:51:31.190Z,100465.94
2023-01-30T03:54:00.838Z,100451.06
2023-01-30T03:56:30.473Z,100455.41
2023-01-30T03:59:00.421Z,100447.50
2023-01-30T04:01:38.717Z,100444.91
2023-01-30T04:04:11.522Z,100436.13
2023-01-30T04:06:41.208Z,100412.53
2023-01-30T04:09:10.797Z,100423.00
2023-01-30T04:11:45.581Z,100413.41
2023-01-30T04:14:15.683Z,100418.69
2023-01-30T04:17:05.258Z,100405.59
2023-01-30T04:19:49.258Z,100408.22
2023-01-30T04:22:18.873Z,100418.72
2023-01-30T04:24:48.463Z,100418.72
2023-01-30T04:27:18.209Z,100410.84
2023-01-30T04:30:07.963Z,100409.97
2023-01-30T04:32:37.829Z,100410.84
2023-01-30T04:35:10.881Z,100400.38
2023-01-30T04:37:41.395Z,100407.34
2023-01-30T04:40:14.293Z,100404.69
2023-01-30T04:42:45.726Z,100408.16
2023-01-30T04:45:33.765Z,100402.03
2023-01-30T04:48:03.828Z,100405.50
2023-01-30T04:50:37.442Z,100404.63
2023-01-30T04:53:07.347Z,100403.75
2023-01-30T04:55:37.055Z,100396.75
2023-01-30T04:58:06.842Z,100398.47
2023-01-30T05:00:36.651Z,100402.84
2023-01-30T05:03:07.202Z,100400.22
2023-01-30T05:05:39.573Z,100394.91
2023-01-30T05:08:11.729Z,100388.78
2023-01-30T05:10:41.293Z,100398.34
2023-01-30T05:13:10.917Z,100388.78
2023-01-30T05:15:41.812Z,100392.22
2023-01-30T05:18:11.476Z,100374.72
2023-01-30T05:20:43.640Z,100386.09
2023-01-30T05:23:13.234Z,100385.22
2023-01-30T05:25:42.815Z,100383.47
2023-01-30T05:28:12.453Z,100374.72
2023-01-30T05:30:42.152Z,100373.81
2023-01-30T05:33:11.804Z,100371.19
2023-01-30T05:35:49.357Z,100367.69
2023-01-30T05:38:19.243Z,100372.91
2023-01-30T05:40:48.821Z,100366.78
2023-01-30T05:43:18.436Z,100362.38
2023-01-30T05:45:55.261Z,100371.13
2023-01-30T05:48:25.445Z,100357.13
2023-01-30T05:50:59.517Z,100360.53
2023-01-30T05:53:30.981Z,100355.22
2023-01-30T05:56:01.637Z,100352.59
2023-01-30T05:58:31.864Z,100357.75
2023-01-30T06:01:05.213Z,100351.56
2023-01-30T06:03:34.846Z,100352.44
2023-01-30T06:06:08.418Z,100360.25
2023-01-30T06:08:38.039Z,100354.06
2023-01-30T06:11:09.605Z,100361.03
2023-01-30T06:13:39.877Z,100361.00
2023-01-30T06:16:10.243Z,100367.13
2023-01-30T06:18:40.239Z,100371.44
2023-01-30T06:21:12.896Z,100353.06
2023-01-30T06:23:42.517Z,100368.78
2023-01-30T06:26:12.833Z,100376.59
2023-01-30T06:28:45.770Z,100383.63
2023-01-30T06:31:16.383Z,100394.03
2023-01-30T06:33:46.588Z,100379.97
2023-01-30T06:36:18.799Z,100369.47
2023-01-30T06:38:48.780Z,100386.88
2023-01-30T06:41:19.035Z,100395.53
2023-01-30T06:43:51.253Z,100385.84
2023-01-30T06:46:21.557Z,100379.72
2023-01-30T06:48:52.036Z,100399.78
2023-01-30T06:51:26.984Z,100398.88
2023-01-30T06:53:57.357Z,100396.13
2023-01-30T06:56:28.747Z,100411.84
2023-01-30T06:58:58.495Z,100420.56
2023-01-30T07:01:29.086Z,100419.59
2023-01-30T07:03:58.768Z,100414.38
2023-01-30T07:06:33.632Z,100416.91
2023-01-30T07:09:03.353Z,100404.59
2023-01-30T07:11:33.172Z,100386.16
2023-01-30T07:14:02.740Z,100407.06
2023-01-30T07:16:32.470Z,100411.38
2023-01-30T07:19:02.133Z,100405.19
2023-01-30T07:21:34.516Z,100392.88
2023-01-30T07:24:04.114Z,100390.25
2023-01-30T07:26:36.503Z,100394.56
2023-01-30T07:29:06.204Z,100398.84
2023-01-30T07:31:35.984Z,100404.06
2023-01-30T07:34:07.478Z,100398.78
2023-01-30T07:36:39.663Z,100398.69
2023-01-30T07:39:09.586Z,100395.19
2023-01-30T07:41:39.258Z,100388.94
2023-01-30T07:44:12.915Z,100399.38
2023-01-30T07:46:42.611Z,100401.03
2023-01-30T07:49:12.878Z,100408.78
2023-01-30T07:51:45.046Z,100406.94
2023-01-30T07:54:14.680Z,100411.25
2023-01-30T07:56:44.276Z,100417.28
2023-01-30T07:59:14.296Z,100424.19
2023-01-30T08:01:43.882Z,100417.06
2023-01-30T08:04:13.513Z,100417.81
2023-01-30T08:06:45.703Z,100420.28
2023-01-30T08:09:15.303Z,100420.16
2023-01-30T08:11:44.963Z,100428.81
2023-01-30T08:14:14.582Z,100426.03
2023-01-30T08:16:44.190Z,100420.69
2023-01-30T08:19:13.803Z,100434.69
2023-01-30T08:21:46.082Z,100445.97
2023-01-30T08:24:15.748Z,100446.72
2023-01-30T08:26:47.672Z,100436.03
2023-01-30T08:29:17.358Z,100444.53
2023-01-30T08:31:47.387Z,100447.00
2023-01-30T08:34:17.003Z,100447.75
2023-01-30T08:36:51.273Z,100445.81
2023-01-30T08:39:20.937Z,100439.47
2023-01-30T08:41:50.492Z,100446.28
2023-01-30T08:44:20.065Z,100441.53
2023-01-30T08:46:49.665Z,100449.03
2023-01-30T08:49:19.287Z,100448.56
2023-01-30T08:51:51.480Z,100457.84
2023-01-30T08:54:21.208Z,100449.75
2023-01-30T08:56:50.782Z,100450.59
2023-01-30T08:59:20.388Z,100461.19
2023-01-30T09:01:49.948Z,100455.22
2023-01-30T09:04:19.558Z,100474.72
2023-01-30T09:06:51.733Z,100487.09
2023-01-30T09:09:21.381Z,100480.03
2023-01-30T09:11:51.014Z,100487.97
2023-01-30T09:14:20.693Z,100471.34
2023-01-30T09:16:55.596Z,100450.47
2023-01-30T09:19:25.487Z,100448.00
2023-01-30T09:21:58.276Z,100437.56
2023-01-30T09:24:27.981Z,100443.66
2023-01-30T09:26:59.058Z,100440.06
2023-01-30T09:29:28.850Z,100443.47
2023-01-30T09:31:59.227Z,100439.16
2023-01-30T09:34:30.047Z,100452.31
2023-01-30T09:37:04.832Z,100455.00
2023-01-30T09:39:34.755Z,100463.78
2023-01-30T09:42:18.604Z,100476.94
2023-01-30T09:45:01.797Z,100476.81
2023-01-30T09:47:39.491Z,100477.59
2023-01-30T09:50:23.543Z,100480.97
2023-01-30T09:52:58.487Z,100478.25
2023-01-30T09:55:29.778Z,100481.81
2023-01-30T09:58:00.922Z,100476.53
2023-01-30T10:00:35.560Z,100484.31
2023-01-30T10:03:11.613Z,100484.25
2023-01-30T10:05:47.169Z,100489.47
2023-01-30T10:08:52.236Z,100477.19
2023-01-30T10:11:26.418Z,100485.13
2023-01-30T10:14:18.851Z,100491.31
2023-01-30T10:16:55.099Z,100501.97
2023-01-30T10:19:46.539Z,100499.50
2023-01-30T10:22:25.146Z,100508.28
2023-01-30T10:25:05.438Z,100509.16
2023-01-30T10:27:37.639Z,100496.03
2023-01-30T10:30:09.900Z,100511.09
2023-01-30T10:32:45.200Z,100494.50
2023-01-30T10:35:20.040Z,100512.19
2023-01-30T10:37:55.361Z,100504.47
2023-01-30T10:40:33.116Z,100506.28
2023-01-30T10:43:06.921Z,100508.00
2023-01-30T10:45:41.799Z,100502.75
2023-01-30T10:48:41.477Z,100505.50
2023-01-30T10:51:22.580Z,100504.66
2023-01-30T10:53:56.289Z,100506.44
2023-01-30T10:56:33.835Z,100508.19
2023-01-30T10:59:09.077Z,100516.00
2023-01-30T11:01:42.797Z,100516.81
2023-01-30T11:04:18.209Z,100529.06
2023-01-30T11:06:48.174Z,100526.53
2023-01-30T11:09:17.786Z,100525.72
2023-01-30T11:11:54.680Z,100525.63
2023-01-30T11:14:24.265Z,100527.34
2023-01-30T11:16:55.854Z,100522.00
2023-01-30T11:19:27.498Z,100517.53
2023-01-30T11:21:58.962Z,100513.06
2023-01-30T11:24:33.534Z,100515.72
2023-01-30T11:27:13.300Z,100520.09
2023-01-30T11:29:43.112Z,100526.09
2023-01-30T11:32:16.908Z,100519.75
2023-01-30T11:34:47.018Z,100512.50
2023-01-30T11:37:18.482Z,100523.72
2023-01-30T11:39:52.379Z,100508.56
2023-01-30T11:42:27.997Z,100516.44
2023-01-30T11:45:15.630Z,100520.78
2023-01-30T11:47:57.877Z,100519.94
2023-01-30T11:50:36.413Z,100510.44
2023-01-30T11:53:23.752Z,100514.06
2023-01-30T11:56:03.720Z,100517.66
2023-01-30T11:58:39.424Z,100509.81
2023-01-30T12:01:11.226Z,100510.59
2023-01-30T12:03:48.625Z,100502.66
2023-01-30T12:06:25.451Z,100514.03
2023-01-30T12:08:56.875Z,100506.06
2023-01-30T12:11:33.128Z,100512.34
2023-01-30T12:14:16.301Z,100501.84
2023-01-30T12:17:02.530Z,100513.19
2023-01-30T12:19:45.551Z,100516.63
2023-01-30T12:22:23.714Z,100519.19
2023-01-30T12:25:01.313Z,100518.41
2023-01-30T12:27:44.588Z,100514.94
2023-01-30T12:30:24.510Z,100519.19
2023-01-30T12:32:55.173Z,100512.88
2023-01-30T12:35:28.782Z,100515.31
2023-01-30T12:38:04.963Z,100511.63
2023-01-30T12:40:46.769Z,100509.72
2023-01-30T12:43:37.590Z,100517.38
2023-01-30T12:46:21.411Z,100508.31
2023-01-30T12:49:11.268Z,100511.66
2023-01-30T12:51:52.429Z,100503.50
2023-01-30T12:54:33.239Z,100509.38
2023-01-30T12:57:12.678Z,100502.13
2023-01-30T12:59:49.422Z,100516.94
2023-01-30T13:02:45.848Z,100519.66
2023-01-30T13:05:23.958Z,100528.75
2023-01-30T13:08:05.469Z,100539.56
2023-01-30T13:10:40.972Z,100534.44
2023-01-30T13:13:17.926Z,100547.63
2023-01-30T13:15:52.372Z,100536.97
2023-01-30T13:18:28.683Z,100540.25
2023-01-30T13:21:04.788Z,100547.16
2023-01-30T13:23:42.640Z,100556.66
2023-01-30T13:26:14.685Z,100563.56
2023-01-30T13:28:48.336Z,100561.69
2023-01-30T13:31:21.481Z,100553.72
2023-01-30T13:33:56.906Z,100560.69
2023-01-30T13:36:29.055Z,100569.34
2023-01-30T13:39:02.583Z,100573.66
2023-01-30T13:41:35.541Z,100570.97
2023-01-30T13:44:09.587Z,100572.66
2023-01-30T13:46:40.937Z,100570.97
2023-01-30T13:49:18.601Z,100580.59
2023-01-30T13:51:50.958Z,100582.38
2023-01-30T13:54:46.540Z,100588.50
2023-01-30T13:57:27.607Z,100606.16
2023-01-30T14:00:26.552Z,100598.38
2023-01-30T14:03:17.973Z,100605.50
2023-01-30T14:06:08.454Z,100602.03
2023-01-30T14:08:43.322Z,100608.19
2023-01-30T14:11:37.527Z,100604.53
2023-01-30T14:14:22.735Z,100616.72
2023-01-30T14:16:54.283Z,100606.91
2023-01-30T14:19:36.477Z,100621.72
2023-01-30T14:22:21.505Z,100624.44
2023-01-30T14:25:21.143Z,100614.13
2023-01-30T14:27:52.860Z,100627.44
2023-01-30T14:30:38.328Z,100641.66
2023-01-30T14:33:35.117Z,100637.38
2023-01-30T14:36:40.577Z,100635.84
2023-01-30T14:39:40.365Z,100633.56
2023-01-30T14:42:23.098Z,100645.25
2023-01-30T14:45:04.942Z,100644.63
2023-01-30T14:47:46.603Z,100656.09
2023-01-30T14:50:21.592Z,100653.47
2023-01-30T14:52:58.104Z,100664.00
2023-01-30T14:55:30.814Z,100666.69
2023-01-30T14:58:01.660Z,100665.00
2023-01-30T15:00:33.833Z,100666.84
2023-01-30T15:03:05.272Z,100674.06
2023-01-30T15:05:37.180Z,100682.03
2023-01-30T15:08:14.504Z,100689.13
2023-01-30T15:11:00.356Z,100701.41
2023-01-30T15:13:39.782Z,100699.59
2023-01-30T15:16:22.337Z,100709.34
2023-01-30T15:19:04.185Z,100712.16
2023-01-30T15:21:54.323Z,100724.63
2023-01-30T15:25:02.482Z,100731.69
2023-01-30T15:27:37.118Z,100725.59
2023-01-30T15:30:19.905Z,100736.16
2023-01-30T15:32:49.828Z,100742.41
2023-01-30T15:35:28.593Z,100743.28
2023-01-30T15:37:59.304Z,100753.00
2023-01-30T15:40:32.567Z,100756.53
2023-01-30T15:43:14.283Z,100761.09
2023-01-30T15:45:53.542Z,100764.72
2023-01-30T15:48:37.134Z,100765.69
2023-01-30T15:51:07.256Z,100762.38
2023-01-30T15:53:38.665Z,100764.28
2023-01-30T15:56:13.392Z,100772.38
2023-01-30T15:58:44.372Z,100783.19
2023-01-30T16:01:16.242Z,100783.44
2023-01-30T16:03:46.370Z,100792.34
2023-01-30T16:06:27.640Z,100793.31
2023-01-30T16:09:02.525Z,100809.13
2023-01-30T16:11:42.531Z,100817.91
2023-01-30T16:14:15.595Z,100821.38
2023-01-30T16:16:47.795Z,100822.19
2023-01-30T16:19:23.170Z,100819.47
2023-01-30T16:21:52.824Z,100829.13
2023-01-30T16:24:24.942Z,100825.59
2023-01-30T16:27:01.112Z,100833.47
2023-01-30T16:29:32.151Z,100840.50
2023-01-30T16:32:02.085Z,100837.06
2023-01-30T16:34:34.367Z,100838.78
2023-01-30T16:37:09.855Z,100847.56
2023-01-30T16:39:40.477Z,100857.22
2023-01-30T16:42:26.292Z,100858.09
2023-01-30T16:44:57.681Z,100857.22
2023-01-30T16:47:28.613Z,100866.88
2023-01-30T16:49:58.818Z,100865.16
2023-01-30T16:52:34.630Z,100870.41
2023-01-30T16:55:06.314Z,100875.63
2023-01-30T16:57:41.893Z,100880.94
2023-01-30T17:00:23.826Z,100889.72
2023-01-30T17:02:55.517Z,100895.03
2023-01-30T17:05:26.830Z,100894.25
2023-01-30T17:07:56.958Z,100896.13
2023-01-30T17:10:55.071Z,100902.38
2023-01-30T17:13:36.841Z,100901.53
2023-01-30T17:16:33.973Z,100900.69
2023-01-30T17:19:04.036Z,100910.31
2023-01-30T17:21:37.037Z,100913.84
2023-01-30T17:24:08.145Z,100914.66
2023-01-30T17:26:39.667Z,100930.44
2023-01-30T17:29:23.430Z,100933.06
2023-01-30T17:31:59.671Z,100937.50
2023-01-30T17:34:29.416Z,100939.28
2023-01-30T17:36:59.067Z,100940.22
2023-01-30T17:39:29.078Z,100945.63
2023-01-30T17:41:58.695Z,100943.00
2023-01-30T17:44:30.884Z,100946.56
2023-01-30T17:47:00.493Z,100950.16
2023-01-30T17:49:30.526Z,100945.94
2023-01-30T17:52:00.374Z,100955.72
2023-01-30T17:54:30.136Z,100962.09
2023-01-30T17:57:02.824Z,100969.25
2023-01-30T17:59:35.219Z,100979.00
2023-01-30T18:02:05.201Z,100976.50
2023-01-30T18:04:34.828Z,100987.03
2023-01-30T18:07:06.980Z,100993.19
2023-01-30T18:09:36.610Z,101001.00
2023-01-30T18:12:06.389Z,100993.06
2023-01-30T18:14:38.587Z,101005.31
2023-01-30T18:17:08.231Z,100994.84
2023-01-30T18:19:37.917Z,101004.47
2023-01-30T18:22:07.509Z,101001.88
2023-01-30T18:24:37.165Z,101005.41
2023-01-30T18:27:06.987Z,101008.91
2023-01-30T18:29:39.192Z,101012.44
2023-01-30T18:32:08.888Z,101016.88
2023-01-30T18:34:38.783Z,101012.59
2023-01-30T18:37:08.405Z,101021.44
2023-01-30T18:39:38.413Z,101017.00
2023-01-30T18:42:08.651Z,101023.97
2023-01-30T18:44:40.863Z,101019.59
2023-01-30T18:47:10.463Z,101017.78
2023-01-30T18:49:40.055Z,101015.16
2023-01-30T18:52:09.668Z,101020.41
2023-01-30T18:54:39.857Z,101024.84
2023-01-30T18:57:09.462Z,101031.84
2023-01-30T18:59:42.304Z,101032.78
2023-01-30T19:02:14.269Z,101037.19
2023-01-30T19:04:43.892Z,101041.63
2023-01-30T19:07:13.527Z,101040.75
2023-01-30T19:09:43.108Z,101041.59
2023-01-30T19:12:25.171Z,101042.44
2023-01-30T19:14:57.386Z,101047.72
2023-01-30T19:17:27.145Z,101046.88
2023-01-30T19:19:57.342Z,101046.00
2023-01-30T19:22:27.340Z,101056.50
2023-01-30T19:24:56.931Z,101053.88
2023-01-30T19:27:26.561Z,101050.34
2023-01-30T19:29:58.951Z,101058.19
2023-01-30T19:32:28.608Z,101060.75
2023-01-30T19:34:58.198Z,101065.97
2023-01-30T19:37:27.890Z,101079.97
2023-01-30T19:39:57.503Z,101077.41
2023-01-30T19:42:27.198Z,101091.53
2023-01-30T19:45:00.086Z,101089.94
2023-01-30T19:47:29.770Z,101098.84
2023-01-30T19:49:59.359Z,101094.56
2023-01-30T19:52:28.991Z,101104.28
2023-01-30T19:54:58.617Z,101100.03
2023-01-30T19:57:28.260Z,101103.59
2023-01-30T20:00:00.438Z,101108.00
2023-01-30T20:02:31.129Z,101113.25
2023-01-30T20:05:02.181Z,101117.63
2023-01-30T20:07:31.795Z,101119.34
2023-01-30T20:10:01.415Z,101128.09
2023-01-30T20:12:31.966Z,101131.59
2023-01-30T20:15:05.645Z,101136.94
2023-01-30T20:17:35.522Z,101134.38
2023-01-30T20:20:06.225Z,101142.28
2023-01-30T20:22:35.849Z,101148.44
2023-01-30T20:25:05.737Z,101146.72
2023-01-30T20:27:35.766Z,101152.84
2023-01-30T20:30:09.450Z,101150.25
2023-01-30T20:32:39.087Z,101151.97
2023-01-30T20:35:09.788Z,101158.09
2023-01-30T20:37:39.653Z,101151.13
2023-01-30T20:40:11.661Z,101160.75
2023-01-30T20:42:41.266Z,101151.19
2023-01-30T20:45:14.045Z,101147.72
2023-01-30T20:47:43.727Z,101150.31
2023-01-30T20:50:14.122Z,101159.94
2023-01-30T20:52:44.008Z,101166.94
2023-01-30T20:55:13.651Z,101166.94
2023-01-30T20:57:45.025Z,101170.44
2023-01-30T21:00:17.940Z,101168.69
2023-01-30T21:02:48.538Z,101179.19
2023-01-30T21:05:19.474Z,101171.31
2023-01-30T21:07:49.364Z,101173.06
2023-01-30T21:10:19.970Z,101185.25
2023-01-30T21:12:49.921Z,101178.28
2023-01-30T21:15:22.240Z,101183.53
2023-01-30T21:17:52.407Z,101183.53
2023-01-30T21:20:22.578Z,101191.38
2023-01-30T21:22:55.331Z,101189.63
2023-01-30T21:25:25.312Z,101196.63
2023-01-30T21:27:55.704Z,101193.97
2023-01-30T21:30:28.791Z,101196.56
2023-01-30T21:32:59.920Z,101195.66
2023-01-30T21:35:30.677Z,101197.38
2023-01-30T21:38:12.926Z,101191.25
2023-01-30T21:40:55.349Z,101200.84
2023-01-30T21:43:25.967Z,101197.38
2023-01-30T21:46:02.260Z,101207.03
2023-01-30T21:48:31.917Z,101202.69
2023-01-30T21:51:01.580Z,101213.19
2023-01-30T21:53:33.534Z,101211.44
2023-01-30T21:56:03.154Z,101209.72
2023-01-30T21:58:34.320Z,101205.31
2023-01-30T22:01:10.802Z,101205.31
2023-01-30T22:03:40.681Z,101217.50
2023-01-30T22:06:11.256Z,101213.16
2023-01-30T22:08:40.987Z,101221.84
2023-01-30T22:11:11.767Z,101228.78
2023-01-30T22:13:43.715Z,101222.66
2023-01-30T22:16:20.647Z,101227.91
2023-01-30T22:18:54.519Z,101231.38
2023-01-30T22:21:25.674Z,101229.66
2023-01-30T22:23:56.171Z,101234.91
2023-01-30T22:26:26.940Z,101241.91
2023-01-30T22:28:58.105Z,101234.94
2023-01-30T22:31:34.624Z,101244.53
2023-01-30T22:34:05.489Z,101242.81
2023-01-30T22:36:37.591Z,101244.59
2023-01-30T22:39:07.992Z,101244.59
2023-01-30T22:41:38.671Z,101246.34
2023-01-30T22:44:11.650Z,101234.13
2023-01-30T22:46:44.042Z,101242.00
2023-01-30T22:49:13.708Z,101242.88
2023-01-30T22:51:44.095Z,101248.06
2023-01-30T22:54:17.234Z,101248.09
2023-01-30T22:56:48.980Z,101250.66
2023-01-30T22:59:18.631Z,101244.56
2023-01-30T23:01:51.599Z,101243.66
2023-01-30T23:04:22.719Z,101242.78
2023-01-30T23:06:54.066Z,101244.53
2023-01-30T23:09:25.852Z,101245.38
2023-01-30T23:12:09.592Z,101247.13
2023-01-30T23:14:40.566Z,101243.63
2023-01-30T23:17:25.479Z,101246.25
2023-01-30T23:19:55.973Z,101242.75
2023-01-30T23:22:25.654Z,101244.50
2023-01-30T23:24:55.279Z,101247.97
2023-01-30T23:27:25.066Z,101247.13
2023-01-30T23:29:54.677Z,101243.63
2023-01-30T23:32:26.862Z,101241.00
2023-01-30T23:34:56.506Z,101241.84
2023-01-30T23:37:46.142Z,101251.47
2023-01-30T23:40:16.045Z,101243.63
2023-01-30T23:42:45.723Z,101245.38
2023-01-30T23:45:15.366Z,101244.47
2023-01-30T23:47:47.557Z,101239.22
2023-01-30T23:50:17.216Z,101244.47
2023-01-30T23:52:46.846Z,101251.44
2023-01-30T23:55:16.619Z,101250.56
2023-01-30T23:57:46.324Z,101251.47
